KSVE/SVE METAR and TAF weather

Enter ICAO airport designator
Station Type Date Time Source
KSVE METAR 2019/08/26 06:55 UTC NOAA

KSVE 260655Z AUTO 29004KT 10SM CLR 19/08 A3016 RMK AO2


Station Type Date Time Source
KSVE Decoded METAR 2019/08/26 06:55 UTC NOAA

Station name not available
Aug 26, 2019 - 02:55 AM EDT / 2019.08.26 0655 UTC
Wind: from the WNW (290 degrees) at 5 MPH (4 KT):0
Visibility: 10 mile(s):0
Sky conditions: clear
Temperature: 66 F (19 C)
Dew Point: 46 F (8 C)
Relative Humidity: 48%
Pressure (altimeter): 30.16 in. Hg (1021 hPa)
ob: KSVE 260655Z AUTO 29004KT 10SM CLR 19/08 A3016 RMK AO2
cycle: 7

Station Type Date Time Source
KSVE TAF UTC NOAA

Error!

Example: see airport list